sensor_id;sensor_type;location;lat;lon;timestamp;pressure;altitude;pressure_sealevel;temperature;humidity
51099;BME280;37146;48.210;16.234;2023-05-23T00:02:13;98362.22;;;13.29;100.00
51099;BME280;37146;48.210;16.234;2023-05-23T00:04:39;98354.91;;;13.07;100.00
51099;BME280;37146;48.210;16.234;2023-05-23T00:07:04;98353.06;;;13.08;100.00
51099;BME280;37146;48.210;16.234;2023-05-23T00:09:29;98353.72;;;13.11;100.00
51099;BME280;37146;48.210;16.234;2023-05-23T00:11:55;98357.31;;;13.23;100.00
51099;BME280;37146;48.210;16.234;2023-05-23T00:14:20;98359.16;;;13.23;100.00
51099;BME280;37146;48.210;16.234;2023-05-23T00:16:45;98349.63;;;13.19;100.00
51099;BME280;37146;48.210;16.234;2023-05-23T00:19:13;98356.31;;;13.00;100.00
51099;BME280;37146;48.210;16.234;2023-05-23T00:21:39;98352.91;;;13.22;100.00
51099;BME280;37146;48.210;16.234;2023-05-23T00:24:05;98353.03;;;13.21;100.00
51099;BME280;37146;48.210;16.234;2023-05-23T00:26:31;98354.59;;;12.99;100.00
51099;BME280;37146;48.210;16.234;2023-05-23T00:28:56;98361.88;;;13.10;100.00
51099;BME280;37146;48.210;16.234;2023-05-23T00:31:21;98371.13;;;12.93;100.00
51099;BME280;37146;48.210;16.234;2023-05-23T00:33:47;98366.00;;;12.90;100.00
51099;BME280;37146;48.210;16.234;2023-05-23T00:36:12;98375.88;;;12.89;100.00
51099;BME280;37146;48.210;16.234;2023-05-23T00:38:37;98374.50;;;12.71;100.00
51099;BME280;37146;48.210;16.234;2023-05-23T00:41:03;98375.03;;;12.63;100.00
51099;BME280;37146;48.210;16.234;2023-05-23T00:43:29;98372.69;;;12.58;100.00
51099;BME280;37146;48.210;16.234;2023-05-23T00:45:54;98365.81;;;12.67;100.00
51099;BME280;37146;48.210;16.234;2023-05-23T00:48:19;98363.44;;;12.75;100.00
51099;BME280;37146;48.210;16.234;2023-05-23T00:50:45;98368.59;;;12.78;100.00
51099;BME280;37146;48.210;16.234;2023-05-23T00:53:10;98372.38;;;12.50;100.00
51099;BME280;37146;48.210;16.234;2023-05-23T00:55:36;98365.28;;;12.49;100.00
51099;BME280;37146;48.210;16.234;2023-05-23T00:58:03;98367.97;;;12.49;100.00
51099;BME280;37146;48.210;16.234;2023-05-23T01:00:29;98376.88;;;12.49;100.00
51099;BME280;37146;48.210;16.234;2023-05-23T01:02:55;98378.19;;;12.57;100.00
51099;BME280;37146;48.210;16.234;2023-05-23T01:05:20;98374.94;;;12.51;100.00
51099;BME280;37146;48.210;16.234;2023-05-23T01:07:49;98374.41;;;12.33;100.00
51099;BME280;37146;48.210;16.234;2023-05-23T01:10:15;98365.81;;;12.41;100.00
51099;BME280;37146;48.210;16.234;2023-05-23T01:15:09;98357.88;;;12.52;100.00
51099;BME280;37146;48.210;16.234;2023-05-23T01:20:57;98353.81;;;12.47;100.00
51099;BME280;37146;48.210;16.234;2023-05-23T01:28:40;98349.41;;;12.33;100.00
51099;BME280;37146;48.210;16.234;2023-05-23T01:31:07;98349.19;;;12.36;100.00
51099;BME280;37146;48.210;16.234;2023-05-23T01:33:34;98353.59;;;12.37;100.00
51099;BME280;37146;48.210;16.234;2023-05-23T01:36:01;98354.22;;;12.41;100.00
51099;BME280;37146;48.210;16.234;2023-05-23T01:38:29;98359.03;;;12.10;100.00
51099;BME280;37146;48.210;16.234;2023-05-23T01:40:54;98354.44;;;12.25;100.00
51099;BME280;37146;48.210;16.234;2023-05-23T01:43:20;98355.19;;;12.27;100.00
51099;BME280;37146;48.210;16.234;2023-05-23T01:45:45;98352.50;;;12.27;100.00
51099;BME280;37146;48.210;16.234;2023-05-23T01:48:11;98353.91;;;12.19;100.00
51099;BME280;37146;48.210;16.234;2023-05-23T01:50:38;98349.94;;;12.25;100.00
51099;BME280;37146;48.210;16.234;2023-05-23T01:53:04;98348.09;;;12.00;100.00
51099;BME280;37146;48.210;16.234;2023-05-23T01:55:29;98349.06;;;11.99;100.00
51099;BME280;37146;48.210;16.234;2023-05-23T01:57:55;98348.97;;;11.86;100.00
51099;BME280;37146;48.210;16.234;2023-05-23T02:00:21;98339.44;;;12.09;100.00
51099;BME280;37146;48.210;16.234;2023-05-23T02:02:46;98342.75;;;12.00;100.00
51099;BME280;37146;48.210;16.234;2023-05-23T02:05:12;98339.59;;;11.93;100.00
51099;BME280;37146;48.210;16.234;2023-05-23T02:07:37;98339.19;;;11.99;100.00
51099;BME280;37146;48.210;16.234;2023-05-23T02:10:02;98338.88;;;12.04;100.00
51099;BME280;37146;48.210;16.234;2023-05-23T02:12:28;98337.38;;;12.00;100.00
51099;BME280;37146;48.210;16.234;2023-05-23T02:14:53;98337.09;;;11.77;100.00
51099;BME280;37146;48.210;16.234;2023-05-23T02:17:19;98335.94;;;11.94;100.00
51099;BME280;37146;48.210;16.234;2023-05-23T02:19:46;98335.31;;;11.90;100.00
51099;BME280;37146;48.210;16.234;2023-05-23T02:22:11;98327.03;;;11.94;100.00
51099;BME280;37146;48.210;16.234;2023-05-23T02:24:36;98327.78;;;11.83;100.00
51099;BME280;37146;48.210;16.234;2023-05-23T02:27:01;98325.75;;;11.86;100.00
51099;BME280;37146;48.210;16.234;2023-05-23T02:29:27;98324.22;;;11.82;100.00
51099;BME280;37146;48.210;16.234;2023-05-23T02:31:52;98330.91;;;11.89;100.00
51099;BME280;37146;48.210;16.234;2023-05-23T02:34:17;98329.50;;;11.84;100.00
51099;BME280;37146;48.210;16.234;2023-05-23T02:36:42;98324.31;;;11.68;100.00
51099;BME280;37146;48.210;16.234;2023-05-23T02:39:08;98327.25;;;11.50;100.00
51099;BME280;37146;48.210;16.234;2023-05-23T02:41:33;98328.28;;;11.75;100.00
51099;BME280;37146;48.210;16.234;2023-05-23T02:43:58;98331.94;;;11.74;100.00
51099;BME280;37146;48.210;16.234;2023-05-23T02:46:23;98328.22;;;11.89;100.00
51099;BME280;37146;48.210;16.234;2023-05-23T02:48:48;98327.53;;;11.73;100.00
51099;BME280;37146;48.210;16.234;2023-05-23T02:51:14;98323.75;;;11.63;100.00
51099;BME280;37146;48.210;16.234;2023-05-23T02:53:39;98323.09;;;11.46;100.00
51099;BME280;37146;48.210;16.234;2023-05-23T02:56:05;98324.03;;;11.45;100.00
51099;BME280;37146;48.210;16.234;2023-05-23T02:58:32;98322.66;;;11.52;100.00
51099;BME280;37146;48.210;16.234;2023-05-23T03:00:59;98320.22;;;11.62;100.00
51099;BME280;37146;48.210;16.234;2023-05-23T03:03:24;98323.94;;;11.59;100.00
51099;BME280;37146;48.210;16.234;2023-05-23T03:05:54;98324.41;;;11.66;100.00
51099;BME280;37146;48.210;16.234;2023-05-23T03:08:20;98328.16;;;11.64;100.00
51099;BME280;37146;48.210;16.234;2023-05-23T03:10:45;98325.81;;;11.72;100.00
51099;BME280;37146;48.210;16.234;2023-05-23T03:13:10;98320.88;;;11.66;100.00
51099;BME280;37146;48.210;16.234;2023-05-23T03:15:35;98327.06;;;11.53;100.00
51099;BME280;37146;48.210;16.234;2023-05-23T03:18:01;98328.59;;;11.57;100.00
51099;BME280;37146;48.210;16.234;2023-05-23T03:20:26;98332.53;;;11.52;100.00
51099;BME280;37146;48.210;16.234;2023-05-23T03:22:51;98336.63;;;11.57;100.00
51099;BME280;37146;48.210;16.234;2023-05-23T03:25:16;98341.22;;;11.55;100.00
51099;BME280;37146;48.210;16.234;2023-05-23T03:27:41;98345.00;;;11.79;100.00
51099;BME280;37146;48.210;16.234;2023-05-23T03:30:07;98344.50;;;11.86;100.00
51099;BME280;37146;48.210;16.234;2023-05-23T03:32:33;98339.91;;;11.88;100.00
51099;BME280;37146;48.210;16.234;2023-05-23T03:34:58;98346.84;;;11.78;100.00
51099;BME280;37146;48.210;16.234;2023-05-23T03:37:23;98347.50;;;11.95;100.00
51099;BME280;37146;48.210;16.234;2023-05-23T03:39:48;98348.69;;;11.90;100.00
51099;BME280;37146;48.210;16.234;2023-05-23T03:42:13;98343.88;;;11.96;100.00
51099;BME280;37146;48.210;16.234;2023-05-23T03:44:39;98349.44;;;11.93;100.00
51099;BME280;37146;48.210;16.234;2023-05-23T03:47:04;98352.59;;;11.99;100.00
51099;BME280;37146;48.210;16.234;2023-05-23T03:49:29;98346.66;;;11.94;100.00
51099;BME280;37146;48.210;16.234;2023-05-23T03:51:54;98352.88;;;11.95;100.00
51099;BME280;37146;48.210;16.234;2023-05-23T03:54:20;98350.63;;;11.88;100.00
51099;BME280;37146;48.210;16.234;2023-05-23T03:56:45;98357.28;;;11.96;100.00
51099;BME280;37146;48.210;16.234;2023-05-23T03:59:10;98349.06;;;11.99;100.00
51099;BME280;37146;48.210;16.234;2023-05-23T04:01:35;98356.16;;;12.00;100.00
51099;BME280;37146;48.210;16.234;2023-05-23T04:04:01;98351.88;;;12.10;100.00
51099;BME280;37146;48.210;16.234;2023-05-23T04:06:26;98361.06;;;12.06;100.00
51099;BME280;37146;48.210;16.234;2023-05-23T04:08:55;98364.47;;;11.95;100.00
51099;BME280;37146;48.210;16.234;2023-05-23T04:11:20;98358.28;;;11.80;100.00
51099;BME280;37146;48.210;16.234;2023-05-23T04:13:46;98352.41;;;11.75;100.00
51099;BME280;37146;48.210;16.234;2023-05-23T04:16:11;98352.72;;;11.70;100.00
51099;BME280;37146;48.210;16.234;2023-05-23T04:18:36;98345.47;;;11.85;100.00
51099;BME280;37146;48.210;16.234;2023-05-23T04:21:03;98355.91;;;12.03;100.00
51099;BME280;37146;48.210;16.234;2023-05-23T04:23:28;98351.22;;;12.19;100.00
51099;BME280;37146;48.210;16.234;2023-05-23T04:25:53;98355.19;;;12.01;100.00
51099;BME280;37146;48.210;16.234;2023-05-23T04:28:19;98345.97;;;12.18;100.00
51099;BME280;37146;48.210;16.234;2023-05-23T04:30:44;98360.78;;;12.24;100.00
51099;BME280;37146;48.210;16.234;2023-05-23T04:33:09;98350.78;;;12.26;100.00
51099;BME280;37146;48.210;16.234;2023-05-23T04:35:35;98347.16;;;12.27;100.00
51099;BME280;37146;48.210;16.234;2023-05-23T04:38:03;98352.91;;;12.07;100.00
51099;BME280;37146;48.210;16.234;2023-05-23T04:40:28;98351.44;;;12.29;100.00
51099;BME280;37146;48.210;16.234;2023-05-23T04:42:53;98350.16;;;12.48;100.00
51099;BME280;37146;48.210;16.234;2023-05-23T04:45:18;98351.53;;;12.41;100.00
51099;BME280;37146;48.210;16.234;2023-05-23T04:47:44;98356.47;;;12.60;100.00
51099;BME280;37146;48.210;16.234;2023-05-23T04:50:09;98352.94;;;12.72;100.00
51099;BME280;37146;48.210;16.234;2023-05-23T04:52:35;98349.19;;;12.62;100.00
51099;BME280;37146;48.210;16.234;2023-05-23T04:55:00;98346.25;;;12.78;100.00
51099;BME280;37146;48.210;16.234;2023-05-23T04:57:25;98345.31;;;12.79;100.00
51099;BME280;37146;48.210;16.234;2023-05-23T04:59:50;98339.19;;;12.90;100.00
51099;BME280;37146;48.210;16.234;2023-05-23T05:02:16;98334.03;;;12.87;100.00
51099;BME280;37146;48.210;16.234;2023-05-23T05:04:41;98339.56;;;13.09;100.00
51099;BME280;37146;48.210;16.234;2023-05-23T05:07:07;98329.03;;;13.06;100.00
51099;BME280;37146;48.210;16.234;2023-05-23T05:09:32;98328.13;;;13.19;100.00
51099;BME280;37146;48.210;16.234;2023-05-23T05:11:57;98331.72;;;13.43;100.00
51099;BME280;37146;48.210;16.234;2023-05-23T05:14:24;98334.00;;;13.61;100.00
51099;BME280;37146;48.210;16.234;2023-05-23T05:16:49;98337.56;;;13.73;100.00
51099;BME280;37146;48.210;16.234;2023-05-23T05:19:14;98336.28;;;13.90;100.00
51099;BME280;37146;48.210;16.234;2023-05-23T05:21:40;98343.41;;;14.02;100.00
51099;BME280;37146;48.210;16.234;2023-05-23T05:24:05;98346.47;;;13.98;100.00
51099;BME280;37146;48.210;16.234;2023-05-23T05:26:33;98346.28;;;14.12;100.00
51099;BME280;37146;48.210;16.234;2023-05-23T05:28:58;98339.59;;;14.29;100.00
51099;BME280;37146;48.210;16.234;2023-05-23T05:31:23;98334.97;;;14.43;100.00
51099;BME280;37146;48.210;16.234;2023-05-23T05:33:49;98341.06;;;14.56;100.00
51099;BME280;37146;48.210;16.234;2023-05-23T05:36:14;98340.03;;;14.70;100.00
51099;BME280;37146;48.210;16.234;2023-05-23T05:38:40;98341.97;;;14.79;100.00
51099;BME280;37146;48.210;16.234;2023-05-23T05:41:05;98333.03;;;14.90;100.00
51099;BME280;37146;48.210;16.234;2023-05-23T05:43:30;98332.91;;;15.03;100.00
51099;BME280;37146;48.210;16.234;2023-05-23T05:45:55;98341.34;;;15.10;100.00
51099;BME280;37146;48.210;16.234;2023-05-23T05:48:21;98343.00;;;15.22;100.00
51099;BME280;37146;48.210;16.234;2023-05-23T05:50:46;98336.91;;;15.32;100.00
51099;BME280;37146;48.210;16.234;2023-05-23T05:53:12;98340.66;;;15.40;100.00
51099;BME280;37146;48.210;16.234;2023-05-23T05:55:37;98346.59;;;15.55;100.00
51099;BME280;37146;48.210;16.234;2023-05-23T05:58:02;98338.38;;;15.68;100.00
51099;BME280;37146;48.210;16.234;2023-05-23T06:00:28;98339.06;;;15.82;100.00
51099;BME280;37146;48.210;16.234;2023-05-23T06:02:53;98350.66;;;15.94;100.00
51099;BME280;37146;48.210;16.234;2023-05-23T06:05:21;98342.34;;;15.97;100.00
51099;BME280;37146;48.210;16.234;2023-05-23T06:07:47;98345.94;;;16.07;100.00
51099;BME280;37146;48.210;16.234;2023-05-23T06:10:13;98345.59;;;16.21;100.00
51099;BME280;37146;48.210;16.234;2023-05-23T06:12:38;98334.03;;;16.31;100.00
51099;BME280;37146;48.210;16.234;2023-05-23T06:15:04;98336.78;;;16.41;100.00
51099;BME280;37146;48.210;16.234;2023-05-23T06:17:30;98340.13;;;16.54;100.00
51099;BME280;37146;48.210;16.234;2023-05-23T06:19:55;98341.03;;;16.64;100.00
51099;BME280;37146;48.210;16.234;2023-05-23T06:22:20;98333.09;;;16.73;100.00
51099;BME280;37146;48.210;16.234;2023-05-23T06:24:46;98338.31;;;16.85;100.00
51099;BME280;37146;48.210;16.234;2023-05-23T06:27:11;98329.41;;;16.95;100.00
51099;BME280;37146;48.210;16.234;2023-05-23T06:29:37;98325.59;;;17.07;100.00
51099;BME280;37146;48.210;16.234;2023-05-23T06:32:02;98331.31;;;17.14;100.00
51099;BME280;37146;48.210;16.234;2023-05-23T06:34:27;98334.19;;;17.22;100.00
51099;BME280;37146;48.210;16.234;2023-05-23T06:36:53;98337.59;;;17.34;100.00
51099;BME280;37146;48.210;16.234;2023-05-23T06:39:18;98335.88;;;17.33;100.00
51099;BME280;37146;48.210;16.234;2023-05-23T06:41:43;98328.41;;;17.56;100.00
51099;BME280;37146;48.210;16.234;2023-05-23T06:44:09;98329.97;;;17.69;100.00
51099;BME280;37146;48.210;16.234;2023-05-23T06:46:34;98331.41;;;17.63;100.00
51099;BME280;37146;48.210;16.234;2023-05-23T06:48:59;98323.13;;;17.94;100.00
51099;BME280;37146;48.210;16.234;2023-05-23T06:51:24;98323.13;;;17.94;100.00
51099;BME280;37146;48.210;16.234;2023-05-23T06:53:50;98328.84;;;18.11;97.12
51099;BME280;37146;48.210;16.234;2023-05-23T06:56:15;98329.41;;;18.24;99.58
51099;BME280;37146;48.210;16.234;2023-05-23T06:58:40;98324.53;;;18.37;99.73
51099;BME280;37146;48.210;16.234;2023-05-23T07:01:06;98317.34;;;18.56;100.00
51099;BME280;37146;48.210;16.234;2023-05-23T07:03:31;98318.13;;;18.76;98.65
51099;BME280;37146;48.210;16.234;2023-05-23T07:05:57;98316.44;;;18.75;94.03
51099;BME280;37146;48.210;16.234;2023-05-23T07:08:22;98317.06;;;18.97;94.09
51099;BME280;37146;48.210;16.234;2023-05-23T07:10:47;98316.91;;;18.98;93.58
51099;BME280;37146;48.210;16.234;2023-05-23T07:13:12;98307.75;;;19.09;94.58
51099;BME280;37146;48.210;16.234;2023-05-23T07:15:38;98316.59;;;19.29;93.21
51099;BME280;37146;48.210;16.234;2023-05-23T07:18:03;98312.16;;;19.74;88.02
51099;BME280;37146;48.210;16.234;2023-05-23T07:20:28;98309.38;;;19.84;85.82
51099;BME280;37146;48.210;16.234;2023-05-23T07:22:53;98309.53;;;20.01;85.60
51099;BME280;37146;48.210;16.234;2023-05-23T07:25:19;98311.22;;;20.20;85.40
51099;BME280;37146;48.210;16.234;2023-05-23T07:27:44;98308.75;;;20.35;79.89
51099;BME280;37146;48.210;16.234;2023-05-23T07:30:09;98296.25;;;20.42;76.76
51099;BME280;37146;48.210;16.234;2023-05-23T07:32:35;98300.50;;;20.71;78.76
51099;BME280;37146;48.210;16.234;2023-05-23T07:35:00;98303.00;;;20.64;74.71
51099;BME280;37146;48.210;16.234;2023-05-23T07:37:25;98300.97;;;20.93;79.63
51099;BME280;37146;48.210;16.234;2023-05-23T07:39:51;98286.53;;;21.00;76.97
51099;BME280;37146;48.210;16.234;2023-05-23T07:42:16;98296.28;;;21.20;76.38
51099;BME280;37146;48.210;16.234;2023-05-23T07:44:42;98292.97;;;21.42;75.81
51099;BME280;37146;48.210;16.234;2023-05-23T07:47:07;98290.94;;;21.53;75.99
51099;BME280;37146;48.210;16.234;2023-05-23T07:49:32;98295.03;;;21.57;74.05
51099;BME280;37146;48.210;16.234;2023-05-23T07:51:58;98293.53;;;21.71;72.73
51099;BME280;37146;48.210;16.234;2023-05-23T07:54:23;98287.94;;;21.97;74.10
51099;BME280;37146;48.210;16.234;2023-05-23T07:56:48;98291.34;;;22.24;70.94
51099;BME280;37146;48.210;16.234;2023-05-23T07:59:13;98294.38;;;22.29;72.59
51099;BME280;37146;48.210;16.234;2023-05-23T08:01:39;98286.56;;;22.43;72.49
51099;BME280;37146;48.210;16.234;2023-05-23T08:04:04;98292.13;;;22.66;70.88
51099;BME280;37146;48.210;16.234;2023-05-23T08:06:30;98290.59;;;22.63;68.01
51099;BME280;37146;48.210;16.234;2023-05-23T08:08:56;98289.97;;;22.36;65.27
51099;BME280;37146;48.210;16.234;2023-05-23T08:11:21;98280.94;;;22.52;64.51
51099;BME280;37146;48.210;16.234;2023-05-23T08:13:46;98283.16;;;22.49;65.16
51099;BME280;37146;48.210;16.234;2023-05-23T08:16:12;98280.56;;;22.55;64.79
51099;BME280;37146;48.210;16.234;2023-05-23T08:18:37;98278.81;;;22.71;64.31
51099;BME280;37146;48.210;16.234;2023-05-23T08:21:02;98281.59;;;22.63;63.17
51099;BME280;37146;48.210;16.234;2023-05-23T08:23:28;98279.03;;;23.01;62.58
51099;BME280;37146;48.210;16.234;2023-05-23T08:25:53;98269.06;;;23.56;63.36
51099;BME280;37146;48.210;16.234;2023-05-23T08:28:18;98276.63;;;23.69;61.40
51099;BME280;37146;48.210;16.234;2023-05-23T08:30:44;98267.22;;;23.25;60.86
51099;BME280;37146;48.210;16.234;2023-05-23T08:33:09;98283.25;;;23.75;61.23
51099;BME280;37146;48.210;16.234;2023-05-23T08:35:34;98282.22;;;23.76;59.62
51099;BME280;37146;48.210;16.234;2023-05-23T08:38:05;98272.72;;;23.95;59.22
51099;BME280;37146;48.210;16.234;2023-05-23T08:40:31;98268.47;;;23.38;58.34
51099;BME280;37146;48.210;16.234;2023-05-23T08:42:57;98269.31;;;23.70;58.19
51099;BME280;37146;48.210;16.234;2023-05-23T08:45:22;98269.91;;;24.03;56.58
51099;BME280;37146;48.210;16.234;2023-05-23T08:47:47;98276.19;;;24.42;57.28
51099;BME280;37146;48.210;16.234;2023-05-23T08:50:16;98279.19;;;24.70;56.94
51099;BME280;37146;48.210;16.234;2023-05-23T08:53:02;98274.91;;;24.68;56.79
51099;BME280;37146;48.210;16.234;2023-05-23T08:55:27;98273.34;;;24.74;57.03
51099;BME280;37146;48.210;16.234;2023-05-23T08:57:56;98278.13;;;24.87;54.66
51099;BME280;37146;48.210;16.234;2023-05-23T09:00:23;98263.66;;;25.23;56.02
51099;BME280;37146;48.210;16.234;2023-05-23T09:02:49;98270.31;;;25.35;56.34
51099;BME280;37146;48.210;16.234;2023-05-23T09:05:15;98268.16;;;25.45;53.98
51099;BME280;37146;48.210;16.234;2023-05-23T09:07:41;98265.22;;;25.32;55.15
51099;BME280;37146;48.210;16.234;2023-05-23T09:10:07;98272.72;;;25.60;53.45
51099;BME280;37146;48.210;16.234;2023-05-23T09:12:33;98268.13;;;25.30;52.71
51099;BME280;37146;48.210;16.234;2023-05-23T09:15:00;98269.22;;;25.66;53.23
51099;BME280;37146;48.210;16.234;2023-05-23T09:17:25;98264.31;;;25.83;53.43
51099;BME280;37146;48.210;16.234;2023-05-23T09:19:50;98260.84;;;25.74;53.03
51099;BME280;37146;48.210;16.234;2023-05-23T09:22:16;98268.03;;;25.97;53.15
51099;BME280;37146;48.210;16.234;2023-05-23T09:24:49;98272.06;;;26.23;51.67
51099;BME280;37146;48.210;16.234;2023-05-23T09:27:14;98272.69;;;26.25;51.95
51099;BME280;37146;48.210;16.234;2023-05-23T09:29:39;98270.97;;;25.96;51.89
51099;BME280;37146;48.210;16.234;2023-05-23T09:32:09;98276.84;;;25.92;50.82
51099;BME280;37146;48.210;16.234;2023-05-23T09:34:34;98275.53;;;26.38;51.52
51099;BME280;37146;48.210;16.234;2023-05-23T09:36:59;98281.69;;;26.41;52.58
51099;BME280;37146;48.210;16.234;2023-05-23T09:39:25;98280.41;;;25.93;51.29
51099;BME280;37146;48.210;16.234;2023-05-23T09:41:50;98289.78;;;26.27;48.87
51099;BME280;37146;48.210;16.234;2023-05-23T09:44:17;98292.53;;;26.05;50.38
51099;BME280;37146;48.210;16.234;2023-05-23T09:46:46;98297.63;;;26.08;50.29
51099;BME280;37146;48.210;16.234;2023-05-23T09:49:17;98297.31;;;26.18;50.38
51099;BME280;37146;48.210;16.234;2023-05-23T09:51:43;98285.50;;;26.18;50.11
51099;BME280;37146;48.210;16.234;2023-05-23T09:54:08;98282.44;;;26.63;50.63
51099;BME280;37146;48.210;16.234;2023-05-23T09:56:34;98284.81;;;27.01;49.99
51099;BME280;37146;48.210;16.234;2023-05-23T09:59:02;98285.19;;;26.91;48.83
51099;BME280;37146;48.210;16.234;2023-05-23T10:01:29;98278.53;;;26.44;48.13
51099;BME280;37146;48.210;16.234;2023-05-23T10:03:56;98278.88;;;27.46;48.23
51099;BME280;37146;48.210;16.234;2023-05-23T10:06:31;98292.22;;;27.00;49.90
51099;BME280;37146;48.210;16.234;2023-05-23T10:09:03;98286.81;;;26.79;48.53
51099;BME280;37146;48.210;16.234;2023-05-23T10:13:54;98274.41;;;26.90;48.40
51099;BME280;37146;48.210;16.234;2023-05-23T10:16:22;98273.13;;;26.85;48.16
51099;BME280;37146;48.210;16.234;2023-05-23T10:18:48;98283.22;;;27.89;48.18
51099;BME280;37146;48.210;16.234;2023-05-23T10:21:20;98285.06;;;27.61;46.08
51099;BME280;37146;48.210;16.234;2023-05-23T10:23:48;98283.63;;;27.92;47.08
51099;BME280;37146;48.210;16.234;2023-05-23T10:26:14;98287.28;;;28.53;46.95
51099;BME280;37146;48.210;16.234;2023-05-23T10:28:40;98271.16;;;27.90;46.47
51099;BME280;37146;48.210;16.234;2023-05-23T10:31:05;98277.09;;;28.47;46.12
51099;BME280;37146;48.210;16.234;2023-05-23T10:33:32;98269.94;;;28.13;46.08
51099;BME280;37146;48.210;16.234;2023-05-23T10:36:14;98276.81;;;27.61;47.08
51099;BME280;37146;48.210;16.234;2023-05-23T10:41:09;98271.41;;;28.49;45.49
51099;BME280;37146;48.210;16.234;2023-05-23T10:43:39;98245.56;;;27.69;46.72
51099;BME280;37146;48.210;16.234;2023-05-23T10:46:18;98243.66;;;29.23;45.30
51099;BME280;37146;48.210;16.234;2023-05-23T10:48:43;98247.91;;;29.71;44.31
51099;BME280;37146;48.210;16.234;2023-05-23T10:51:15;98238.31;;;29.41;44.30
51099;BME280;37146;48.210;16.234;2023-05-23T10:53:42;98236.09;;;29.57;43.69
51099;BME280;37146;48.210;16.234;2023-05-23T10:56:08;98246.03;;;29.90;43.55
51099;BME280;37146;48.210;16.234;2023-05-23T10:58:39;98246.03;;;29.90;43.54
51099;BME280;37146;48.210;16.234;2023-05-23T11:01:06;98248.69;;;29.78;43.48
51099;BME280;37146;48.210;16.234;2023-05-23T11:06:00;98239.19;;;29.35;45.60
51099;BME280;37146;48.210;16.234;2023-05-23T11:08:26;98235.38;;;29.29;42.60
51099;BME280;37146;48.210;16.234;2023-05-23T11:11:02;98240.88;;;29.36;44.18
51099;BME280;37146;48.210;16.234;2023-05-23T11:16:57;98232.97;;;29.46;41.09
51099;BME280;37146;48.210;16.234;2023-05-23T11:21:42;98222.47;;;29.30;39.89
51099;BME280;37146;48.210;16.234;2023-05-23T11:24:08;98224.44;;;29.55;40.53
51099;BME280;37146;48.210;16.234;2023-05-23T11:26:34;98227.22;;;28.23;42.99
51099;BME280;37146;48.210;16.234;2023-05-23T11:28:59;98209.09;;;27.20;43.99
51099;BME280;37146;48.210;16.234;2023-05-23T11:31:24;98224.81;;;26.49;46.68
51099;BME280;37146;48.210;16.234;2023-05-23T11:33:50;98219.56;;;27.58;47.19
51099;BME280;37146;48.210;16.234;2023-05-23T11:36:16;98213.63;;;27.48;46.89
51099;BME280;37146;48.210;16.234;2023-05-23T11:38:41;98217.66;;;27.52;46.60
51099;BME280;37146;48.210;16.234;2023-05-23T11:41:06;98218.94;;;28.50;45.00
51099;BME280;37146;48.210;16.234;2023-05-23T11:43:32;98226.41;;;28.95;43.43
51099;BME280;37146;48.210;16.234;2023-05-23T11:45:57;98217.97;;;28.97;44.36
51099;BME280;37146;48.210;16.234;2023-05-23T11:48:31;98219.34;;;28.47;46.65
51099;BME280;37146;48.210;16.234;2023-05-23T11:50:56;98212.41;;;28.18;46.41
51099;BME280;37146;48.210;16.234;2023-05-23T11:53:21;98221.75;;;28.10;47.53
51099;BME280;37146;48.210;16.234;2023-05-23T11:55:52;98197.09;;;27.41;49.36
51099;BME280;37146;48.210;16.234;2023-05-23T11:58:25;98210.97;;;27.13;46.46
51099;BME280;37146;48.210;16.234;2023-05-23T12:00:50;98202.94;;;26.69;47.20
51099;BME280;37146;48.210;16.234;2023-05-23T12:03:16;98202.59;;;27.28;46.70
51099;BME280;37146;48.210;16.234;2023-05-23T12:05:42;98197.66;;;27.03;46.40
51099;BME280;37146;48.210;16.234;2023-05-23T12:08:07;98192.50;;;26.51;48.23
51099;BME280;37146;48.210;16.234;2023-05-23T12:10:34;98184.84;;;25.55;48.92
51099;BME280;37146;48.210;16.234;2023-05-23T12:13:00;98177.56;;;27.03;48.08
51099;BME280;37146;48.210;16.234;2023-05-23T12:15:25;98170.91;;;27.32;47.27
51099;BME280;37146;48.210;16.234;2023-05-23T12:17:53;98180.03;;;27.46;46.92
51099;BME280;37146;48.210;16.234;2023-05-23T12:20:19;98175.00;;;28.10;46.69
51099;BME280;37146;48.210;16.234;2023-05-23T12:22:45;98177.28;;;28.27;45.60
51099;BME280;37146;48.210;16.234;2023-05-23T12:25:10;98188.91;;;28.02;45.47
51099;BME280;37146;48.210;16.234;2023-05-23T12:27:37;98183.22;;;28.03;46.69
51099;BME280;37146;48.210;16.234;2023-05-23T12:30:15;98176.81;;;26.74;46.55
51099;BME280;37146;48.210;16.234;2023-05-23T12:32:44;98174.53;;;27.39;48.29
51099;BME280;37146;48.210;16.234;2023-05-23T12:35:11;98171.31;;;27.29;48.70
51099;BME280;37146;48.210;16.234;2023-05-23T12:37:40;98186.06;;;27.08;47.43
51099;BME280;37146;48.210;16.234;2023-05-23T12:42:50;98195.94;;;26.25;48.22
51099;BME280;37146;48.210;16.234;2023-05-23T12:45:17;98195.72;;;26.20;49.50
51099;BME280;37146;48.210;16.234;2023-05-23T12:47:42;98194.25;;;26.24;49.55
51099;BME280;37146;48.210;16.234;2023-05-23T12:50:08;98188.59;;;25.75;49.14
51099;BME280;37146;48.210;16.234;2023-05-23T12:52:33;98200.19;;;25.99;50.05
51099;BME280;37146;48.210;16.234;2023-05-23T12:55:00;98194.16;;;26.39;50.06
51099;BME280;37146;48.210;16.234;2023-05-23T12:57:25;98189.59;;;26.53;49.89
51099;BME280;37146;48.210;16.234;2023-05-23T12:59:51;98186.97;;;26.73;50.55
51099;BME280;37146;48.210;16.234;2023-05-23T13:02:16;98175.78;;;26.75;49.71
51099;BME280;37146;48.210;16.234;2023-05-23T13:04:41;98177.75;;;26.52;51.32
51099;BME280;37146;48.210;16.234;2023-05-23T13:07:06;98175.34;;;27.40;48.68